Terminal Aerodrome Forecast
Issued by NWS Detroit/Pontiac, MI

Current Version | Previous Version | Text Only | Print | Product List | Glossary On
Versions: 1 2 3 4 5 6 7 8 9 10 11 12 13 14 15 16 17 18 19
000
FTUS43 KDTX 201723
TAFFNT
TAF
KFNT 201723Z 2018/2118 VRB03KT P6SM BKN025 BKN200
      TEMPO 2018/2020 SCT025 BKN200
     FM210200 VRB03KT P6SM SCT026 SCT070 BKN150
     FM210900 21004KT P6SM OVC028=

USA.gov is the U.S. government's official web portal to all federal, state and local government web resources and services.